Armada Township, Michigan
Current Conditions -  °F | °C
As of 2:58 AM on Saturday 25 Oct 2014 (Local Time) from KMTC Reporting Station
Clear Clear  
Wind Chill: 51°   Ceiling: Unl
Heat Index: 51°   Visibility: 10mi
Dew Point: 48°   Wind: 7mph
Humidity: 92%   Direction: 230°SW
Pressure: 29.89"   Gusts: NA
Location:  42.8463°N, 82.9201°W
Report Text: KMTC 250658Z AUTO 23006KT 10SM CLR 10/09 A2989 RMK AO2 SLP126 T01030091
Loading
Personal Weather Stations






























Interactive Weather Map
Tropical Storm Tracking
New forecast layout! Learn more

10-Day Weather Forecast

Advertisements
Track Severe Weather on mobile